Time;durP1;ratioP1;P1;durP2;ratioP2;P2;SDS_P1;SDS_P2;PMS_P1;PMS_P2;Temp;Humidity;BMP_temperature;BMP_pressure;BME280_temperature;BME280_humidity;BME280_pressure;Samples;Min_cycle;Max_cycle;Signal;HPM_P1;HPM_P2
2021/04/12 00:01:48;;;;;;;3.60;3.30;;;;;;;11.55;77.51;101045.75;4932588;29;20415;-80
2021/04/12 00:04:49;;;;;;;4.15;3.70;;;;;;;11.20;79.27;101035.78;4931957;28;20415;-80
2021/04/12 00:07:42;;;;;;;8.32;4.50;;;;;;;11.47;78.47;101038.34;4958131;28;20055;-80
2021/04/12 00:10:35;;;;;;;3.83;3.42;;;;;;;11.29;78.23;101042.09;4931606;29;20059;-80
2021/04/12 00:13:23;;;;;;;5.75;2.97;;;;;;;11.23;78.91;101032.44;4935886;29;20051;-81
2021/04/12 00:16:15;;;;;;;3.78;3.42;;;;;;;11.25;78.73;101021.25;4931531;29;20044;-80
2021/04/12 00:19:30;;;;;;;4.32;2.97;;;;;;;11.29;78.96;101014.88;4955331;28;20113;-80
2021/04/12 00:22:42;;;;;;;5.68;3.63;;;;;;;11.32;79.19;100999.84;4930662;29;20062;-80
2021/04/12 00:25:33;;;;;;;4.50;3.35;;;;;;;11.39;78.62;100997.44;4931011;29;20428;-80
2021/04/12 00:28:50;;;;;;;3.60;2.80;;;;;;;11.47;78.47;100994.78;4958527;28;20043;-80
2021/04/12 00:31:41;;;;;;;3.58;3.03;;;;;;;11.54;77.95;100997.03;4922554;29;20047;-81
2021/04/12 00:34:50;;;;;;;3.15;2.85;;;;;;;11.68;77.32;100997.75;4937800;29;20530;-81
2021/04/12 00:37:42;;;;;;;4.95;3.17;;;;;;;11.62;77.57;100998.19;4946868;28;20704;-81
2021/04/12 00:40:36;;;;;;;5.30;3.55;;;;;;;11.03;80.93;100994.84;4938875;29;20444;-81
2021/04/12 00:43:56;;;;;;;4.13;3.35;;;;;;;11.28;79.15;100979.78;4935680;29;20051;-80
2021/04/12 00:46:56;;;;;;;5.53;3.80;;;;;;;11.57;78.09;100980.09;4920767;29;20039;-81
2021/04/12 00:49:52;;;;;;;4.38;3.08;;;;;;;11.68;76.90;100975.97;4983304;23;20058;-81
2021/04/12 00:52:55;;;;;;;4.00;3.55;;;;;;;11.57;77.66;100971.91;4984212;28;20050;-80
2021/04/12 00:55:55;;;;;;;5.22;3.45;;;;;;;11.49;77.47;100951.69;4989617;28;20402;-81
2021/04/12 00:58:44;;;;;;;5.70;4.63;;;;;;;11.59;77.36;100953.31;4965755;28;20050;-80
2021/04/12 01:02:00;;;;;;;5.25;3.17;;;;;;;11.39;78.11;100934.81;4972666;28;20050;-81
2021/04/12 01:05:08;;;;;;;4.90;4.35;;;;;;;10.72;81.35;100948.56;4968648;28;20050;-80
2021/04/12 01:08:05;;;;;;;4.15;3.60;;;;;;;11.06;80.81;100956.97;4963156;28;20046;-80
2021/04/12 01:11:10;;;;;;;5.57;4.07;;;;;;;11.01;80.65;100965.25;4986138;28;20045;-79
2021/04/12 01:14:13;;;;;;;4.80;3.90;;;;;;;11.12;80.53;100972.00;4970650;28;20054;-80
2021/04/12 01:17:29;;;;;;;5.47;4.03;;;;;;;10.99;81.59;100958.50;4969463;28;20801;-81
2021/04/12 01:20:36;;;;;;;3.45;3.15;;;;;;;10.84;81.43;100956.97;4966809;28;20062;-81
2021/04/12 01:23:57;;;;;;;10.52;4.60;;;;;;;10.67;82.04;100948.69;4987547;28;20520;-80
2021/04/12 01:27:06;;;;;;;5.38;4.20;;;;;;;10.72;82.49;100954.00;4973168;28;20042;-81
2021/04/12 01:30:20;;;;;;;6.03;5.43;;;;;;;10.88;81.61;100951.72;4966185;28;20050;-79
2021/04/12 01:33:27;;;;;;;5.50;4.82;;;;;;;10.86;81.78;100949.31;4981275;28;20534;-80
2021/04/12 01:36:30;;;;;;;8.52;5.60;;;;;;;10.99;80.57;100958.50;4966694;28;20527;-80
2021/04/12 01:39:54;;;;;;;7.15;4.43;;;;;;;11.11;79.93;100954.09;4986296;28;20065;-80
2021/04/12 01:42:48;;;;;;;6.03;3.95;;;;;;;11.07;79.88;100950.38;4965542;28;20035;-81
2021/04/12 01:45:55;;;;;;;5.03;4.47;;;;;;;11.04;79.99;100948.28;4967665;28;20042;-80
2021/04/12 01:49:20;;;;;;;4.25;3.83;;;;;;;10.98;80.35;100937.84;4967233;28;20049;-80
2021/04/12 01:52:17;;;;;;;5.25;4.60;;;;;;;10.87;80.86;100922.94;4965114;28;20404;-80
2021/04/12 01:55:14;;;;;;;4.93;4.38;;;;;;;11.17;79.95;100919.38;4986133;28;20525;-80
2021/04/12 01:58:19;;;;;;;4.88;4.43;;;;;;;11.09;80.60;100920.94;4969947;28;20050;-81
2021/04/12 02:01:09;;;;;;;5.78;4.22;;;;;;;11.02;80.91;100915.13;4974823;28;20038;-80
2021/04/12 02:04:07;;;;;;;5.13;4.63;;;;;;;11.05;80.20;100909.09;4974803;28;20046;-80
2021/04/12 02:07:17;;;;;;;9.55;4.65;;;;;;;11.08;79.38;100911.16;4971853;28;20526;-81
2021/04/12 02:10:34;;;;;;;4.65;4.18;;;;;;;11.04;79.55;100907.47;4964958;28;20050;-81
2021/04/12 02:13:32;;;;;;;4.93;4.40;;;;;;;11.08;79.70;100900.28;4979711;28;20053;-80
2021/04/12 02:16:32;;;;;;;6.93;4.80;;;;;;;11.00;79.76;100914.66;4981763;28;20054;-80
2021/04/12 02:19:45;;;;;;;8.20;5.53;;;;;;;11.02;79.70;100915.13;4987741;28;20050;-79
2021/04/12 02:22:55;;;;;;;7.03;5.35;;;;;;;11.04;80.19;100918.34;4984593;28;20538;-80
2021/04/12 02:25:53;;;;;;;8.60;6.55;;;;;;;10.93;80.44;100908.06;4983923;28;20054;-81
2021/04/12 02:28:57;;;;;;;10.90;5.72;;;;;;;11.06;79.71;100915.34;4985502;28;20119;-81
2021/04/12 02:32:00;;;;;;;7.88;7.03;;;;;;;10.94;80.09;100920.53;4947444;28;20097;-80
2021/04/12 02:35:15;;;;;;;7.25;5.55;;;;;;;11.02;79.83;100903.47;4979680;28;20054;-81
2021/04/12 02:38:19;;;;;;;7.28;6.25;;;;;;;11.19;78.82;100903.53;4965500;28;20054;-80
2021/04/12 02:41:38;;;;;;;13.95;6.20;;;;;;;11.19;78.79;100889.91;4966850;28;20054;-80
2021/04/12 02:44:39;;;;;;;6.40;5.63;;;;;;;11.03;79.67;100873.22;4985621;28;20042;-81
2021/04/12 02:47:41;;;;;;;7.07;6.05;;;;;;;11.03;79.51;100867.78;4989749;28;20066;-80
2021/04/12 02:50:39;;;;;;;8.23;5.95;;;;;;;11.04;79.29;100857.69;4965514;28;20046;-81
2021/04/12 02:53:53;;;;;;;7.07;5.82;;;;;;;11.02;79.58;100849.06;4964575;28;20050;-80
2021/04/12 02:57:04;;;;;;;7.63;5.88;;;;;;;10.91;80.30;100848.53;4989729;28;20065;-81
2021/04/12 03:00:23;;;;;;;6.13;5.53;;;;;;;11.04;79.40;100850.31;4977162;28;20053;-81
2021/04/12 03:03:20;;;;;;;6.10;5.50;;;;;;;10.87;80.30;100852.97;4984178;28;20525;-80
2021/04/12 03:06:20;;;;;;;6.30;5.28;;;;;;;10.99;80.05;100858.63;4971174;28;20323;-80
2021/04/12 03:09:33;;;;;;;6.07;5.47;;;;;;;11.04;79.21;100847.59;4983099;28;20529;-79
2021/04/12 03:12:50;;;;;;;6.28;5.68;;;;;;;10.97;79.88;100839.09;4975289;28;20427;-79
2021/04/12 03:15:50;;;;;;;5.43;4.93;;;;;;;10.95;80.34;100826.94;4986501;28;20412;-80
2021/04/12 03:19:07;;;;;;;8.98;6.65;;;;;;;10.86;80.34;100824.19;4987422;28;20058;-81
2021/04/12 03:22:29;;;;;;;8.73;6.30;;;;;;;10.80;81.08;100819.19;4964634;28;20042;-79
2021/04/12 03:25:21;;;;;;;6.32;5.55;;;;;;;10.83;80.89;100813.09;4946666;28;20049;-80
2021/04/12 03:28:30;;;;;;;10.43;6.53;;;;;;;10.84;80.47;100820.16;4965317;28;20407;-80
2021/04/12 03:31:42;;;;;;;8.48;6.18;;;;;;;10.86;80.36;100823.38;4986040;28;20043;-80
2021/04/12 03:34:35;;;;;;;8.50;7.68;;;;;;;10.78;81.00;100819.50;4985430;28;20066;-80
2021/04/12 03:37:34;;;;;;;7.90;6.53;;;;;;;11.03;79.74;100829.66;4966169;28;20518;-79
2021/04/12 03:40:24;;;;;;;8.90;7.10;;;;;;;11.04;80.03;100831.28;4981483;28;20055;-80
2021/04/12 03:43:46;;;;;;;10.95;7.70;;;;;;;10.96;80.48;100839.41;4961837;28;20046;-80
2021/04/12 03:46:42;;;;;;;10.55;7.43;;;;;;;10.83;81.04;100832.16;4947266;28;20038;-80
2021/04/12 03:50:02;;;;;;;11.18;7.85;;;;;;;10.86;81.25;100839.69;4965250;28;20046;-81
2021/04/12 03:52:53;;;;;;;9.77;8.80;;;;;;;10.86;81.17;100840.50;4964274;28;20046;-80
2021/04/12 03:56:15;;;;;;;11.05;8.95;;;;;;;10.90;81.34;100836.03;4965462;28;20415;-79
2021/04/12 03:59:11;;;;;;;9.73;8.50;;;;;;;10.93;81.15;100840.03;4963467;28;20526;-80
2021/04/12 04:01:55;;;;;;;9.07;7.65;;;;;;;10.98;80.88;100842.63;4963020;28;20050;-80
2021/04/12 04:04:53;;;;;;;;;;;;;;;10.95;80.90;100848.69;4963466;28;20514;-81
2021/04/12 04:08:11;;;;;;;8.85;7.95;;;;;;;10.95;80.79;100841.34;4983810;28;20309;-80
2021/04/12 04:11:07;;;;;;;10.95;7.05;;;;;;;10.89;81.35;100847.22;4974878;28;20046;-80
2021/04/12 04:14:08;;;;;;;9.98;8.43;;;;;;;10.81;82.00;100842.56;4974908;28;20041;-80
2021/04/12 04:16:52;;;;;;;12.20;8.32;;;;;;;10.83;82.01;100837.59;4988736;28;20046;-80
2021/04/12 04:19:46;;;;;;;8.10;6.95;;;;;;;10.86;81.47;100840.50;4964708;28;20054;-80
2021/04/12 04:22:48;;;;;;;10.52;8.48;;;;;;;10.89;81.52;100830.91;4973389;28;20045;-80
2021/04/12 04:26:03;;;;;;;16.20;9.38;;;;;;;11.01;80.68;100814.78;4986726;28;20046;-80
2021/04/12 04:28:47;;;;;;;10.73;8.82;;;;;;;10.96;80.87;100821.19;4964627;28;20065;-79
2021/04/12 04:31:32;;;;;;;11.70;10.48;;;;;;;10.88;81.26;100819.22;4962703;28;20066;-80
2021/04/12 04:34:31;;;;;;;7.90;7.10;;;;;;;10.78;82.08;100822.22;4973721;28;20047;-81
2021/04/12 04:37:44;;;;;;;14.13;10.43;;;;;;;10.78;81.62;100824.13;4964055;28;20046;-80
2021/04/12 04:40:52;;;;;;;16.23;10.60;;;;;;;10.72;82.86;100823.47;4979430;28;20052;-80
2021/04/12 04:44:18;;;;;;;13.10;11.50;;;;;;;10.76;82.61;100824.47;4980710;28;20419;-80
2021/04/12 04:47:31;;;;;;;12.20;9.43;;;;;;;11.02;81.07;100828.06;4914007;29;20036;-79
2021/04/12 04:50:34;;;;;;;17.10;13.25;;;;;;;11.17;80.42;100829.56;4958396;28;20050;-80
2021/04/12 04:53:38;;;;;;;15.38;11.82;;;;;;;11.02;80.93;100830.78;4981356;28;20051;-80
2021/04/12 04:57:00;;;;;;;15.27;11.15;;;;;;;11.18;79.65;100841.22;4968844;28;20047;-80
2021/04/12 05:00:16;;;;;;;15.40;12.30;;;;;;;11.05;80.18;100823.91;4978935;28;20491;-80
2021/04/12 05:03:10;;;;;;;14.30;11.80;;;;;;;11.01;80.39;100818.31;4962399;28;20039;-82
2021/04/12 05:06:24;;;;;;;18.27;12.25;;;;;;;11.07;80.37;100813.53;4962279;28;20047;-82
2021/04/12 05:09:21;;;;;;;15.43;12.60;;;;;;;11.15;80.24;100815.47;4969139;28;20043;-82
2021/04/12 05:12:43;;;;;;;16.80;12.63;;;;;;;11.19;80.07;100800.09;4980580;28;20039;-82
2021/04/12 05:15:46;;;;;;;13.68;11.70;;;;;;;11.27;80.09;100793.09;4969814;28;20035;-82
2021/04/12 05:18:37;;;;;;;18.95;13.82;;;;;;;11.13;80.04;100782.31;4977625;28;20035;-82
2021/04/12 05:21:43;;;;;;;18.00;14.95;;;;;;;11.21;79.93;100786.19;4981562;28;20035;-83
2021/04/12 05:24:34;;;;;;;21.92;16.60;;;;;;;11.00;80.20;100788.69;4973868;28;20043;-82
2021/04/12 05:27:47;;;;;;;20.27;15.05;;;;;;;11.13;80.37;100795.91;4986577;28;20035;-82
2021/04/12 05:31:03;;;;;;;18.95;15.27;;;;;;;11.12;80.19;100788.91;4991097;28;20407;-82
2021/04/12 05:34:07;;;;;;;18.67;15.25;;;;;;;11.03;80.81;100790.78;4987360;28;20043;-81
2021/04/12 05:37:29;;;;;;;20.00;16.00;;;;;;;11.03;81.10;100786.13;4973252;28;20043;-82
2021/04/12 05:40:35;;;;;;;15.02;12.40;;;;;;;11.13;80.10;100785.84;4957473;28;20050;-82
2021/04/12 05:43:39;;;;;;;13.55;12.07;;;;;;;11.09;80.22;100782.16;4985311;28;20054;-78
2021/04/12 05:46:46;;;;;;;13.60;11.63;;;;;;;11.21;79.96;100780.75;4972688;28;20043;-82
2021/04/12 05:49:31;;;;;;;13.63;10.40;;;;;;;11.19;79.96;100774.81;4988788;28;20491;-82
2021/04/12 05:53:02;;;;;;;11.05;8.40;;;;;;;11.26;79.50;100775.16;4966654;28;20046;-81
2021/04/12 05:55:59;;;;;;;15.27;10.85;;;;;;;11.07;80.35;100778.94;4987748;28;20054;-81
2021/04/12 05:59:03;;;;;;;15.82;10.85;;;;;;;11.25;79.91;100768.09;4969472;28;20038;-81
2021/04/12 06:02:11;;;;;;;15.85;11.55;;;;;;;11.23;79.88;100773.03;4988610;28;20410;-82
2021/04/12 06:04:58;;;;;;;15.65;10.88;;;;;;;11.14;80.37;100771.13;4984243;28;20039;-81
2021/04/12 06:08:06;;;;;;;12.43;9.68;;;;;;;11.34;79.66;100774.34;4989224;28;20039;-81
2021/04/12 06:11:26;;;;;;;14.23;10.07;;;;;;;11.35;79.55;100778.66;4945325;28;20553;-80
2021/04/12 06:14:47;;;;;;;14.30;10.57;;;;;;;11.51;79.29;100777.91;4970212;28;20046;-81
2021/04/12 06:17:54;;;;;;;19.30;9.95;;;;;;;11.68;79.12;100788.00;4961934;28;20057;-81
2021/04/12 06:21:10;;;;;;;17.23;10.30;;;;;;;11.63;78.26;100799.03;4988766;28;20062;-81
2021/04/12 06:24:22;;;;;;;18.50;12.27;;;;;;;11.74;78.02;100803.06;4970558;28;20051;-81
2021/04/12 06:27:18;;;;;;;15.43;11.57;;;;;;;11.69;78.44;100800.47;4987270;28;20039;-81
2021/04/12 06:30:21;;;;;;;9.73;8.20;;;;;;;11.63;78.08;100793.56;4963545;28;20499;-81
2021/04/12 06:33:28;;;;;;;14.43;11.23;;;;;;;11.68;79.02;100798.09;4968915;28;20058;-82
2021/04/12 06:36:15;;;;;;;13.60;8.68;;;;;;;11.63;78.22;100800.97;4966997;28;20035;-81
2021/04/12 06:39:19;;;;;;;94.88;54.30;;;;;;;11.73;78.37;100804.22;4987866;28;20058;-81
2021/04/12 06:42:34;;;;;;;30.20;18.38;;;;;;;11.63;78.07;100793.56;4985767;28;20030;-82
2021/04/12 06:45:53;;;;;;;7.07;5.68;;;;;;;11.77;77.09;100794.28;4962037;28;20047;-82
2021/04/12 06:49:15;;;;;;;11.40;8.85;;;;;;;11.86;77.34;100788.81;4980051;28;20058;-82
2021/04/12 06:52:19;;;;;;;11.80;8.40;;;;;;;11.88;77.11;100789.31;4972651;28;20050;-82
2021/04/12 06:55:19;;;;;;;14.82;9.80;;;;;;;11.95;77.38;100790.41;4970154;28;20046;-83
2021/04/12 06:58:45;;;;;;;10.93;9.07;;;;;;;11.70;78.48;100788.47;4968304;28;20444;-81
2021/04/12 07:02:04;;;;;;;17.48;9.88;;;;;;;11.79;78.55;100774.88;4968019;28;20042;-81
2021/04/12 07:05:24;;;;;;;11.48;8.82;;;;;;;11.65;78.66;100780.44;4985738;28;20054;-83
2021/04/12 07:08:20;;;;;;;13.60;10.07;;;;;;;11.68;78.89;100770.84;4996282;23;20423;-80
2021/04/12 07:11:52;;;;;;;12.35;9.38;;;;;;;11.89;78.03;100767.16;4969615;28;20051;-79
2021/04/12 07:14:56;;;;;;;11.98;10.02;;;;;;;11.30;80.92;100774.19;4983914;28;20045;-79
2021/04/12 07:18:05;;;;;;;12.18;9.38;;;;;;;11.73;78.78;100774.25;4972554;28;20043;-78
2021/04/12 07:21:35;;;;;;;10.88;9.00;;;;;;;11.67;79.43;100763.81;4979803;28;20115;-79
2021/04/12 07:24:51;;;;;;;13.95;9.90;;;;;;;11.70;79.28;100771.31;4986387;28;20061;-80
2021/04/12 07:28:33;;;;;;;12.52;8.30;;;;;;;11.65;80.39;100769.56;4969196;28;20054;-80
2021/04/12 07:31:55;;;;;;;17.48;10.57;;;;;;;12.02;78.70;100770.03;4954087;28;20062;-80
2021/04/12 07:35:21;;;;;;;14.57;10.15;;;;;;;12.09;77.92;100773.88;4989088;28;20026;-80
2021/04/12 07:38:26;;;;;;;18.33;11.00;;;;;;;12.18;77.83;100782.03;4978970;28;20047;-80
2021/04/12 07:41:27;;;;;;;12.50;8.55;;;;;;;12.14;77.88;100768.25;4972900;28;20494;-80
2021/04/12 07:44:50;;;;;;;10.48;7.85;;;;;;;11.79;80.07;100775.66;4971271;28;20430;-80
2021/04/12 07:48:19;;;;;;;11.35;7.85;;;;;;;11.73;80.34;100774.25;4978748;28;20529;-79
2021/04/12 07:51:38;;;;;;;9.65;7.88;;;;;;;11.83;80.62;100776.66;4987834;28;20075;-76
2021/04/12 07:55:00;;;;;;;12.15;7.82;;;;;;;12.12;79.25;100767.78;4983720;28;20053;-76
2021/04/12 07:57:55;;;;;;;9.57;6.57;;;;;;;11.77;82.04;100777.13;4971863;28;20530;-76
2021/04/12 08:00:49;;;;;;;9.38;5.93;;;;;;;11.71;81.91;100772.91;4968982;28;20430;-75
2021/04/12 08:03:54;;;;;;;7.20;5.22;;;;;;;12.04;81.63;100771.31;4991349;28;20045;-78
2021/04/12 08:07:16;;;;;;;7.35;6.07;;;;;;;12.21;80.33;100774.00;4984528;28;20402;-76
2021/04/12 08:10:40;;;;;;;6.20;4.32;;;;;;;12.25;81.17;100772.22;4986013;28;20049;-76
2021/04/12 08:13:54;;;;;;;4.05;3.30;;;;;;;12.76;78.70;100784.88;4981962;28;21391;-76
2021/04/12 08:17:16;;;;;;;3.85;2.58;;;;;;;12.54;78.83;100773.44;4984484;28;20683;-76
2021/04/12 08:20:51;;;;;;;3.83;2.55;;;;;;;12.71;79.04;100771.44;4986861;28;20045;-75
2021/04/12 08:23:51;;;;;;;2.42;1.90;;;;;;;12.37;80.82;100758.72;4981479;28;20042;-76
2021/04/12 08:27:03;;;;;;;3.70;1.30;;;;;;;12.40;80.76;100754.53;4986978;28;20545;-76
2021/04/12 08:30:26;;;;;;;1.45;1.25;;;;;;;12.20;81.77;100744.34;4982738;28;20414;-76
2021/04/12 08:33:48;;;;;;;4.07;1.08;;;;;;;12.19;82.21;100712.78;4967970;28;20038;-76
2021/04/12 08:37:24;;;;;;;6.35;1.40;;;;;;;12.38;81.48;100711.25;4974836;28;20446;-75
2021/04/12 08:40:31;;;;;;;5.07;1.50;;;;;;;12.58;80.56;100717.91;4976154;28;20162;-75
2021/04/12 08:44:06;;;;;;;1.45;0.90;;;;;;;13.20;78.72;100722.69;4984214;28;20293;-77
2021/04/12 08:47:04;;;;;;;2.50;0.93;;;;;;;14.64;73.45;100734.44;4983274;28;20051;-75
2021/04/12 08:50:23;;;;;;;1.42;0.80;;;;;;;15.45;68.20;100735.34;4962542;28;20045;-75
2021/04/12 08:53:33;;;;;;;1.10;0.57;;;;;;;15.68;68.12;100734.53;4985727;28;20053;-75
2021/04/12 08:56:43;;;;;;;3.42;0.50;;;;;;;15.45;67.81;100716.16;4987432;28;20415;-76
2021/04/12 08:59:46;;;;;;;0.40;0.40;;;;;;;15.62;67.56;100729.63;4972302;28;20057;-77
2021/04/12 09:03:03;;;;;;;1.98;0.60;;;;;;;14.76;69.50;100730.91;4983866;28;20518;-76
2021/04/12 09:06:03;;;;;;;1.08;0.68;;;;;;;14.29;71.29;100739.50;4969239;28;20545;-76
2021/04/12 09:09:20;;;;;;;0.40;0.40;;;;;;;14.18;72.18;100743.00;4985673;28;20049;-76
2021/04/12 09:12:23;;;;;;;0.55;0.30;;;;;;;14.41;72.03;100730.56;4986032;28;20061;-76
2021/04/12 09:15:30;;;;;;;1.50;0.40;;;;;;;14.72;70.90;100739.03;4987639;28;20050;-76
2021/04/12 09:18:33;;;;;;;0.80;0.55;;;;;;;14.33;71.32;100734.94;4968736;28;20050;-75
2021/04/12 09:21:46;;;;;;;1.15;0.25;;;;;;;14.24;71.88;100731.53;4974487;28;20049;-75
2021/04/12 09:24:49;;;;;;;0.68;0.50;;;;;;;14.53;70.65;100734.09;4971505;28;20046;-75
2021/04/12 09:28:04;;;;;;;1.58;1.02;;;;;;;14.93;69.62;100736.94;4974179;28;20041;-76
2021/04/12 09:31:16;;;;;;;2.42;0.60;;;;;;;15.40;68.02;100728.97;4971132;28;20041;-75
2021/04/12 09:34:40;;;;;;;1.30;0.40;;;;;;;16.64;63.04;100726.09;4986242;28;20049;-75
2021/04/12 09:37:52;;;;;;;0.95;0.75;;;;;;;15.72;65.71;100723.66;4988229;28;20045;-75
2021/04/12 09:40:53;;;;;;;0.95;0.68;;;;;;;16.40;64.57;100716.06;4962966;28;20046;-75
2021/04/12 09:43:53;;;;;;;1.83;0.82;;;;;;;16.98;62.89;100713.53;4989621;28;20562;-75
2021/04/12 09:47:06;;;;;;;1.25;0.60;;;;;;;15.74;65.50;100726.84;4987505;28;20050;-76
2021/04/12 09:50:06;;;;;;;1.90;0.50;;;;;;;15.79;66.29;100713.69;4990584;28;20045;-76
2021/04/12 09:53:06;;;;;;;0.38;0.30;;;;;;;15.39;67.37;100705.44;4987859;28;20049;-75
2021/04/12 09:56:10;;;;;;;0.30;0.30;;;;;;;15.08;68.30;100699.84;4976530;28;20057;-75
2021/04/12 09:59:32;;;;;;;0.20;0.20;;;;;;;15.60;66.08;100693.53;4967396;28;20066;-76
2021/04/12 10:02:41;;;;;;;0.15;0.15;;;;;;;15.30;66.61;100696.59;4960851;28;20046;-75
2021/04/12 10:06:00;;;;;;;0.50;0.17;;;;;;;16.59;63.87;100704.38;4958166;28;20074;-77
2021/04/12 10:09:10;;;;;;;0.20;0.20;;;;;;;16.15;64.44;100706.41;4956007;28;20050;-76
2021/04/12 10:12:27;;;;;;;0.10;0.10;;;;;;;15.17;67.45;100700.50;4956977;28;20050;-76
2021/04/12 10:15:24;;;;;;;1.05;0.80;;;;;;;14.90;69.43;100693.03;4923678;28;20050;-75
2021/04/12 10:18:28;;;;;;;0.50;0.30;;;;;;;14.58;69.86;100694.75;4956008;28;20058;-77
2021/04/12 10:21:18;;;;;;;0.90;0.50;;;;;;;14.73;70.46;100693.28;4960716;28;20523;-76
2021/04/12 10:24:15;;;;;;;2.42;0.95;;;;;;;14.77;70.70;100688.72;4958851;28;20054;-76
2021/04/12 10:27:11;;;;;;;1.23;0.50;;;;;;;14.51;70.64;100686.31;4963597;28;20042;-77
2021/04/12 10:30:12;;;;;;;1.25;0.82;;;;;;;14.41;71.54;100693.06;4957836;28;20123;-76
2021/04/12 10:33:00;;;;;;;0.77;0.50;;;;;;;14.47;70.68;100688.97;4955248;28;20046;-77
2021/04/12 10:36:04;;;;;;;0.77;0.60;;;;;;;14.37;70.96;100686.69;4964744;28;20093;-77
2021/04/12 10:39:10;;;;;;;1.65;0.63;;;;;;;14.94;68.60;100678.28;4975162;28;20046;-76
2021/04/12 10:42:06;;;;;;;0.98;0.63;;;;;;;14.73;68.60;100674.91;4976339;28;20046;-77
2021/04/12 10:45:03;;;;;;;0.88;0.63;;;;;;;14.85;69.09;100665.88;4968202;28;20042;-76
2021/04/12 10:47:52;;;;;;;1.52;0.55;;;;;;;15.16;67.48;100660.56;4954394;28;20050;-76
2021/04/12 10:50:52;;;;;;;0.77;0.60;;;;;;;15.80;65.23;100665.09;4975491;28;20053;-75
2021/04/12 10:54:07;;;;;;;1.65;0.85;;;;;;;15.91;66.38;100659.91;4959917;28;20046;-76
2021/04/12 10:57:33;;;;;;;1.25;0.50;;;;;;;16.59;62.71;100663.19;4927568;28;20058;-76
2021/04/12 11:00:35;;;;;;;0.75;0.68;;;;;;;16.02;64.16;100667.25;4931968;29;20074;-77
2021/04/12 11:03:56;;;;;;;2.55;1.20;;;;;;;16.07;63.51;100664.25;4949583;28;20058;-77
2021/04/12 11:06:54;;;;;;;0.50;0.50;;;;;;;15.03;67.32;100664.50;4953917;28;20062;-77
2021/04/12 11:09:53;;;;;;;1.70;0.80;;;;;;;14.61;68.95;100655.78;4957345;28;20050;-77
2021/04/12 11:13:01;;;;;;;1.83;0.80;;;;;;;14.39;70.57;100653.47;4958910;28;20050;-76
2021/04/12 11:16:12;;;;;;;2.15;0.75;;;;;;;13.99;71.46;100654.13;4962634;28;20050;-76
2021/04/12 11:19:18;;;;;;;1.35;1.25;;;;;;;14.08;72.21;100657.53;4973491;28;20057;-77
2021/04/12 11:22:28;;;;;;;1.65;1.20;;;;;;;14.18;72.33;100660.97;4976845;28;20050;-75
2021/04/12 11:25:21;;;;;;;1.17;1.08;;;;;;;13.92;73.51;100664.00;4981159;28;20045;-76
2021/04/12 11:28:33;;;;;;;3.03;1.73;;;;;;;14.10;71.73;100654.47;4985138;28;20038;-76
2021/04/12 11:31:57;;;;;;;1.60;1.50;;;;;;;13.89;72.55;100654.56;4970867;28;20050;-76
2021/04/12 11:35:14;;;;;;;1.80;1.52;;;;;;;13.64;73.86;100659.16;4984090;28;20045;-75
2021/04/12 11:38:08;;;;;;;4.18;2.10;;;;;;;13.71;73.53;100647.69;4966601;28;20477;-76
2021/04/12 11:41:18;;;;;;;2.28;1.98;;;;;;;13.91;74.20;100641.34;4954265;28;20038;-76
2021/04/12 11:44:11;;;;;;;2.28;1.90;;;;;;;13.92;73.51;100634.72;4947699;28;20415;-76
2021/04/12 11:47:37;;;;;;;2.08;1.88;;;;;;;13.80;73.52;100629.25;4956693;28;20514;-75
2021/04/12 11:50:52;;;;;;;2.20;2.00;;;;;;;13.89;74.12;100629.16;4954060;28;20058;-77
2021/04/12 11:53:55;;;;;;;1.85;1.48;;;;;;;13.98;72.23;100629.84;4956220;28;20408;-77
2021/04/12 11:56:52;;;;;;;3.58;2.17;;;;;;;13.67;73.65;100609.28;4939315;28;20054;-77
2021/04/12 11:59:59;;;;;;;3.33;2.58;;;;;;;13.89;73.37;100602.63;4957372;28;20062;-77
2021/04/12 12:03:32;;;;;;;2.53;1.95;;;;;;;14.07;72.28;100614.13;4970682;28;20049;-77
2021/04/12 12:06:21;;;;;;;3.90;2.60;;;;;;;14.24;71.02;100607.63;4960846;28;20112;-77
2021/04/12 12:09:41;;;;;;;4.03;3.05;;;;;;;14.35;70.78;100600.56;4972580;28;20058;-77
2021/04/12 12:12:44;;;;;;;3.70;2.25;;;;;;;14.09;72.12;100600.91;4979412;28;20062;-77
2021/04/12 12:15:56;;;;;;;2.20;1.90;;;;;;;13.85;72.32;100607.16;4943624;29;20054;-77
2021/04/12 12:19:11;;;;;;;4.15;2.78;;;;;;;13.67;73.33;100597.56;4959863;28;20054;-78
2021/04/12 12:22:25;;;;;;;2.90;2.58;;;;;;;13.54;73.76;100602.22;4961811;28;20050;-77
2021/04/12 12:25:29;;;;;;;3.25;2.40;;;;;;;13.41;73.89;100599.78;4959114;28;20443;-76
2021/04/12 12:28:28;;;;;;;3.72;2.70;;;;;;;13.68;73.27;100594.50;4960845;28;20065;-77
2021/04/12 12:31:31;;;;;;;2.80;2.60;;;;;;;13.86;72.71;100597.84;4961723;28;20427;-77
2021/04/12 12:34:19;;;;;;;3.63;3.00;;;;;;;13.95;72.75;100595.00;4963602;28;20058;-77
2021/04/12 12:37:26;;;;;;;6.47;2.55;;;;;;;13.91;72.90;100602.28;4960430;28;20050;-76
2021/04/12 12:40:18;;;;;;;6.03;3.15;;;;;;;13.54;73.74;100588.53;4964015;28;20070;-77
2021/04/12 12:43:09;;;;;;;6.03;3.28;;;;;;;13.22;74.96;100603.00;4990368;28;20046;-77
2021/04/12 12:46:05;;;;;;;5.00;3.33;;;;;;;13.19;75.33;100593.56;4988401;28;20045;-76
2021/04/12 12:49:15;;;;;;;8.40;3.70;;;;;;;13.10;75.87;100592.00;4975288;28;20066;-77
2021/04/12 12:52:04;;;;;;;5.18;4.57;;;;;;;13.11;76.20;100596.31;4981342;28;20048;-76
2021/04/12 12:54:52;;;;;;;8.45;4.57;;;;;;;13.05;76.76;100587.56;4985593;28;20053;-77
2021/04/12 12:57:44;;;;;;;6.75;4.40;;;;;;;13.11;76.68;100585.41;5001260;28;20046;-77
2021/04/12 13:00:41;;;;;;;5.88;4.45;;;;;;;13.10;76.58;100590.09;4984233;28;20617;-77
2021/04/12 13:03:39;;;;;;;7.20;4.82;;;;;;;13.08;77.46;100591.53;5002294;28;20049;-76
2021/04/12 13:06:30;;;;;;;7.43;4.88;;;;;;;12.92;77.45;100582.34;4982416;28;20046;-77
2021/04/12 13:09:25;;;;;;;7.75;5.63;;;;;;;12.94;79.54;100585.56;4988857;23;20054;-81
2021/04/12 13:12:13;;;;;;;8.63;5.75;;;;;;;12.91;82.14;100576.09;4951647;28;20055;-82
2021/04/12 13:15:26;;;;;;;17.17;6.03;;;;;;;12.51;83.21;100575.78;4971471;28;20050;-84
2021/04/12 13:18:20;;;;;;;11.10;7.80;;;;;;;12.41;84.69;100578.88;4957941;28;20062;-82
2021/04/12 13:21:33;;;;;;;14.82;9.32;;;;;;;12.54;85.16;100575.13;4958030;29;20066;-86
2021/04/12 13:24:24;;;;;;;8.27;3.63;;;;;;;12.72;82.92;100565.66;4956686;28;20055;-83
2021/04/12 13:27:21;;;;;;;5.13;4.05;;;;;;;12.53;83.55;100565.34;4967432;28;20054;-79
2021/04/12 13:30:09;;;;;;;3.38;3.08;;;;;;;12.51;83.24;100551.22;4947607;29;20050;-80
2021/04/12 13:33:00;;;;;;;5.82;3.78;;;;;;;12.91;81.96;100553.47;4963361;29;20058;-81
2021/04/12 13:35:46;;;;;;;4.28;3.42;;;;;;;13.24;80.24;100540.66;4967095;28;20054;-83
2021/04/12 13:38:35;;;;;;;4.85;3.22;;;;;;;13.51;78.25;100544.72;4949465;29;20054;-80
2021/04/12 13:41:25;;;;;;;4.13;2.90;;;;;;;13.62;77.27;100530.25;4966268;28;20066;-80
2021/04/12 13:44:14;;;;;;;2.75;2.38;;;;;;;13.60;77.38;100532.56;4965119;28;20067;-80
2021/04/12 13:47:08;;;;;;;4.38;3.03;;;;;;;13.84;76.68;100522.75;4964361;28;20054;-80
2021/04/12 13:50:01;;;;;;;2.53;2.25;;;;;;;13.93;75.71;100507.84;4963463;28;20050;-80
2021/04/12 13:52:58;;;;;;;2.40;2.15;;;;;;;13.53;76.10;100512.38;4962216;29;20058;-80
2021/04/12 13:55:52;;;;;;;2.13;1.85;;;;;;;13.70;76.13;100517.66;4954275;28;20054;-80
2021/04/12 13:58:41;;;;;;;5.65;1.90;;;;;;;13.38;77.24;100507.56;4967806;28;20038;-80
2021/04/12 14:01:41;;;;;;;2.72;2.10;;;;;;;13.31;78.69;100512.81;4965201;28;20062;-78
2021/04/12 14:04:38;;;;;;;1.92;1.70;;;;;;;13.23;78.07;100507.09;4949666;28;20055;-80
2021/04/12 14:07:47;;;;;;;1.17;1.08;;;;;;;13.32;77.08;100509.72;4931719;29;20059;-79
2021/04/12 14:10:39;;;;;;;2.00;1.50;;;;;;;13.18;78.64;100507.31;4955482;28;20034;-85
2021/04/12 14:13:30;;;;;;;1.48;1.33;;;;;;;13.15;78.51;100502.53;4942097;29;20050;-80
2021/04/12 14:16:27;;;;;;;3.53;1.40;;;;;;;12.92;80.00;100504.00;4940094;29;20054;-81
2021/04/12 14:19:31;;;;;;;3.47;2.13;;;;;;;12.90;81.35;100480.94;4944066;29;20046;-80